sensor_id;sensor_type;location;lat;lon;timestamp;P1;durP1;ratioP1;P2;durP2;ratioP2
23402;SDS011;11874;48.228;11.684;2023-12-07T00:01:58;14.50;;;7.65;;
23402;SDS011;11874;48.228;11.684;2023-12-07T00:04:28;11.85;;;8.18;;
23402;SDS011;11874;48.228;11.684;2023-12-07T00:06:56;14.13;;;8.43;;
23402;SDS011;11874;48.228;11.684;2023-12-07T00:09:25;13.75;;;7.95;;
23402;SDS011;11874;48.228;11.684;2023-12-07T00:11:53;10.98;;;7.22;;
23402;SDS011;11874;48.228;11.684;2023-12-07T00:14:24;12.63;;;7.13;;
23402;SDS011;11874;48.228;11.684;2023-12-07T00:16:52;10.90;;;6.95;;
23402;SDS011;11874;48.228;11.684;2023-12-07T00:19:20;12.23;;;7.45;;
23402;SDS011;11874;48.228;11.684;2023-12-07T00:21:49;13.25;;;8.00;;
23402;SDS011;11874;48.228;11.684;2023-12-07T00:24:17;13.25;;;8.00;;
23402;SDS011;11874;48.228;11.684;2023-12-07T00:26:45;14.73;;;8.07;;
23402;SDS011;11874;48.228;11.684;2023-12-07T00:29:13;13.35;;;8.27;;
23402;SDS011;11874;48.228;11.684;2023-12-07T00:31:43;13.60;;;8.20;;
23402;SDS011;11874;48.228;11.684;2023-12-07T00:34:11;13.00;;;8.30;;
23402;SDS011;11874;48.228;11.684;2023-12-07T00:36:39;15.10;;;8.95;;
23402;SDS011;11874;48.228;11.684;2023-12-07T00:39:08;14.07;;;8.23;;
23402;SDS011;11874;48.228;11.684;2023-12-07T00:41:36;15.13;;;8.35;;
23402;SDS011;11874;48.228;11.684;2023-12-07T00:44:04;12.30;;;8.05;;
23402;SDS011;11874;48.228;11.684;2023-12-07T00:46:33;16.52;;;8.30;;
23402;SDS011;11874;48.228;11.684;2023-12-07T00:49:03;14.00;;;8.25;;
23402;SDS011;11874;48.228;11.684;2023-12-07T00:51:31;14.98;;;8.65;;
23402;SDS011;11874;48.228;11.684;2023-12-07T00:53:59;14.80;;;8.52;;
23402;SDS011;11874;48.228;11.684;2023-12-07T00:56:28;14.73;;;9.00;;
23402;SDS011;11874;48.228;11.684;2023-12-07T00:58:56;17.52;;;9.63;;
23402;SDS011;11874;48.228;11.684;2023-12-07T01:01:24;15.70;;;8.90;;
23402;SDS011;11874;48.228;11.684;2023-12-07T01:03:52;16.85;;;9.93;;
23402;SDS011;11874;48.228;11.684;2023-12-07T01:06:22;16.30;;;9.25;;
23402;SDS011;11874;48.228;11.684;2023-12-07T01:08:50;16.42;;;9.80;;
23402;SDS011;11874;48.228;11.684;2023-12-07T01:11:18;13.95;;;8.75;;
23402;SDS011;11874;48.228;11.684;2023-12-07T01:13:47;13.43;;;8.75;;
23402;SDS011;11874;48.228;11.684;2023-12-07T01:16:16;15.27;;;9.18;;
23402;SDS011;11874;48.228;11.684;2023-12-07T01:18:44;13.82;;;7.90;;
23402;SDS011;11874;48.228;11.684;2023-12-07T01:21:12;17.63;;;9.30;;
23402;SDS011;11874;48.228;11.684;2023-12-07T01:23:42;16.33;;;9.25;;
23402;SDS011;11874;48.228;11.684;2023-12-07T01:26:11;16.70;;;9.05;;
23402;SDS011;11874;48.228;11.684;2023-12-07T01:28:39;15.25;;;9.15;;
23402;SDS011;11874;48.228;11.684;2023-12-07T01:31:07;12.77;;;8.43;;
23402;SDS011;11874;48.228;11.684;2023-12-07T01:33:36;15.88;;;9.57;;
23402;SDS011;11874;48.228;11.684;2023-12-07T01:36:04;14.43;;;8.80;;
23402;SDS011;11874;48.228;11.684;2023-12-07T01:38:32;17.73;;;9.50;;
23402;SDS011;11874;48.228;11.684;2023-12-07T01:41:02;15.27;;;8.70;;
23402;SDS011;11874;48.228;11.684;2023-12-07T01:43:30;14.95;;;9.65;;
23402;SDS011;11874;48.228;11.684;2023-12-07T01:46:00;15.52;;;9.73;;
23402;SDS011;11874;48.228;11.684;2023-12-07T01:48:30;14.98;;;9.18;;
23402;SDS011;11874;48.228;11.684;2023-12-07T01:50:59;15.55;;;9.55;;
23402;SDS011;11874;48.228;11.684;2023-12-07T01:53:27;15.05;;;9.65;;
23402;SDS011;11874;48.228;11.684;2023-12-07T01:55:56;16.77;;;10.30;;
23402;SDS011;11874;48.228;11.684;2023-12-07T01:58:28;16.38;;;9.63;;
23402;SDS011;11874;48.228;11.684;2023-12-07T02:00:56;17.08;;;10.13;;
23402;SDS011;11874;48.228;11.684;2023-12-07T02:03:23;13.77;;;9.10;;
23402;SDS011;11874;48.228;11.684;2023-12-07T02:05:53;17.58;;;10.05;;
23402;SDS011;11874;48.228;11.684;2023-12-07T02:08:23;17.00;;;10.13;;
23402;SDS011;11874;48.228;11.684;2023-12-07T02:10:51;13.10;;;9.25;;
23402;SDS011;11874;48.228;11.684;2023-12-07T02:13:19;18.63;;;10.23;;
23402;SDS011;11874;48.228;11.684;2023-12-07T02:15:50;15.77;;;9.27;;
23402;SDS011;11874;48.228;11.684;2023-12-07T02:18:22;17.65;;;9.77;;
23402;SDS011;11874;48.228;11.684;2023-12-07T02:21:01;17.92;;;10.13;;
23402;SDS011;11874;48.228;11.684;2023-12-07T02:23:36;16.83;;;9.75;;
23402;SDS011;11874;48.228;11.684;2023-12-07T02:26:18;17.43;;;10.33;;
23402;SDS011;11874;48.228;11.684;2023-12-07T02:28:49;17.45;;;10.88;;
23402;SDS011;11874;48.228;11.684;2023-12-07T02:31:18;15.07;;;9.45;;
23402;SDS011;11874;48.228;11.684;2023-12-07T02:33:46;16.73;;;9.95;;
23402;SDS011;11874;48.228;11.684;2023-12-07T02:36:15;16.60;;;10.48;;
23402;SDS011;11874;48.228;11.684;2023-12-07T02:38:47;16.75;;;9.98;;
23402;SDS011;11874;48.228;11.684;2023-12-07T02:41:20;16.67;;;9.55;;
23402;SDS011;11874;48.228;11.684;2023-12-07T02:43:50;19.40;;;10.10;;
23402;SDS011;11874;48.228;11.684;2023-12-07T02:46:18;17.48;;;9.50;;
23402;SDS011;11874;48.228;11.684;2023-12-07T02:48:46;17.23;;;9.73;;
23402;SDS011;11874;48.228;11.684;2023-12-07T02:51:15;16.45;;;10.40;;
23402;SDS011;11874;48.228;11.684;2023-12-07T02:53:43;17.13;;;10.60;;
23402;SDS011;11874;48.228;11.684;2023-12-07T02:56:11;18.25;;;10.18;;
23402;SDS011;11874;48.228;11.684;2023-12-07T02:58:39;18.42;;;9.32;;
23402;SDS011;11874;48.228;11.684;2023-12-07T03:01:11;14.75;;;8.90;;
23402;SDS011;11874;48.228;11.684;2023-12-07T03:03:39;16.52;;;9.43;;
23402;SDS011;11874;48.228;11.684;2023-12-07T03:06:08;15.32;;;9.93;;
23402;SDS011;11874;48.228;11.684;2023-12-07T03:08:36;15.38;;;9.52;;
23402;SDS011;11874;48.228;11.684;2023-12-07T03:11:05;15.18;;;9.27;;
23402;SDS011;11874;48.228;11.684;2023-12-07T03:13:33;14.35;;;9.27;;
23402;SDS011;11874;48.228;11.684;2023-12-07T03:16:01;17.67;;;9.00;;
23402;SDS011;11874;48.228;11.684;2023-12-07T03:18:38;16.13;;;9.52;;
23402;SDS011;11874;48.228;11.684;2023-12-07T03:21:06;17.10;;;9.20;;
23402;SDS011;11874;48.228;11.684;2023-12-07T03:23:34;14.07;;;8.85;;
23402;SDS011;11874;48.228;11.684;2023-12-07T03:26:03;13.85;;;8.93;;
23402;SDS011;11874;48.228;11.684;2023-12-07T03:28:32;14.40;;;8.68;;
23402;SDS011;11874;48.228;11.684;2023-12-07T03:31:00;12.10;;;7.72;;
23402;SDS011;11874;48.228;11.684;2023-12-07T03:33:28;15.27;;;8.20;;
23402;SDS011;11874;48.228;11.684;2023-12-07T03:35:58;16.80;;;8.82;;
23402;SDS011;11874;48.228;11.684;2023-12-07T03:38:26;14.40;;;9.05;;
23402;SDS011;11874;48.228;11.684;2023-12-07T03:40:54;10.90;;;7.88;;
23402;SDS011;11874;48.228;11.684;2023-12-07T03:43:22;12.82;;;8.43;;
23402;SDS011;11874;48.228;11.684;2023-12-07T03:45:51;14.07;;;7.75;;
23402;SDS011;11874;48.228;11.684;2023-12-07T03:48:19;11.98;;;7.13;;
23402;SDS011;11874;48.228;11.684;2023-12-07T03:50:47;14.80;;;8.00;;
23402;SDS011;11874;48.228;11.684;2023-12-07T03:53:17;13.13;;;7.30;;
23402;SDS011;11874;48.228;11.684;2023-12-07T03:55:45;12.30;;;7.25;;
23402;SDS011;11874;48.228;11.684;2023-12-07T03:58:13;14.10;;;7.75;;
23402;SDS011;11874;48.228;11.684;2023-12-07T04:00:41;11.13;;;6.93;;
23402;SDS011;11874;48.228;11.684;2023-12-07T04:03:09;11.77;;;7.50;;
23402;SDS011;11874;48.228;11.684;2023-12-07T04:05:38;11.20;;;7.25;;
23402;SDS011;11874;48.228;11.684;2023-12-07T04:08:06;10.88;;;6.32;;
23402;SDS011;11874;48.228;11.684;2023-12-07T04:10:36;13.10;;;7.68;;
23402;SDS011;11874;48.228;11.684;2023-12-07T04:13:04;15.25;;;7.28;;
23402;SDS011;11874;48.228;11.684;2023-12-07T04:15:33;11.30;;;7.40;;
23402;SDS011;11874;48.228;11.684;2023-12-07T04:18:01;12.10;;;6.95;;
23402;SDS011;11874;48.228;11.684;2023-12-07T04:20:29;12.27;;;7.38;;
23402;SDS011;11874;48.228;11.684;2023-12-07T04:22:57;13.02;;;7.10;;
23402;SDS011;11874;48.228;11.684;2023-12-07T04:25:25;10.48;;;6.15;;
23402;SDS011;11874;48.228;11.684;2023-12-07T04:27:55;10.13;;;6.13;;
23402;SDS011;11874;48.228;11.684;2023-12-07T04:30:23;11.55;;;7.25;;
23402;SDS011;11874;48.228;11.684;2023-12-07T04:32:52;13.95;;;7.35;;
23402;SDS011;11874;48.228;11.684;2023-12-07T04:35:20;11.48;;;7.05;;
23402;SDS011;11874;48.228;11.684;2023-12-07T04:37:48;11.30;;;6.95;;
23402;SDS011;11874;48.228;11.684;2023-12-07T04:40:17;12.68;;;7.05;;
23402;SDS011;11874;48.228;11.684;2023-12-07T04:42:47;12.10;;;6.97;;
23402;SDS011;11874;48.228;11.684;2023-12-07T04:45:16;13.00;;;7.50;;
23402;SDS011;11874;48.228;11.684;2023-12-07T04:47:45;12.32;;;6.85;;
23402;SDS011;11874;48.228;11.684;2023-12-07T04:50:13;12.68;;;7.25;;
23402;SDS011;11874;48.228;11.684;2023-12-07T04:52:41;11.13;;;7.15;;
23402;SDS011;11874;48.228;11.684;2023-12-07T04:55:09;12.90;;;7.43;;
23402;SDS011;11874;48.228;11.684;2023-12-07T04:57:38;13.07;;;7.57;;
23402;SDS011;11874;48.228;11.684;2023-12-07T05:00:07;11.32;;;6.65;;
23402;SDS011;11874;48.228;11.684;2023-12-07T05:02:37;11.73;;;6.90;;
23402;SDS011;11874;48.228;11.684;2023-12-07T05:05:06;12.50;;;7.10;;
23402;SDS011;11874;48.228;11.684;2023-12-07T05:07:35;10.23;;;6.72;;
23402;SDS011;11874;48.228;11.684;2023-12-07T05:10:04;12.02;;;7.22;;
23402;SDS011;11874;48.228;11.684;2023-12-07T05:12:32;14.45;;;7.25;;
23402;SDS011;11874;48.228;11.684;2023-12-07T05:15:00;14.05;;;7.20;;
23402;SDS011;11874;48.228;11.684;2023-12-07T05:17:30;13.27;;;7.18;;
23402;SDS011;11874;48.228;11.684;2023-12-07T05:20:00;11.07;;;6.97;;
23402;SDS011;11874;48.228;11.684;2023-12-07T05:22:29;12.07;;;6.97;;
23402;SDS011;11874;48.228;11.684;2023-12-07T05:24:57;13.57;;;7.43;;
23402;SDS011;11874;48.228;11.684;2023-12-07T05:27:26;13.70;;;7.03;;
23402;SDS011;11874;48.228;11.684;2023-12-07T05:29:54;13.43;;;7.88;;
23402;SDS011;11874;48.228;11.684;2023-12-07T05:32:23;11.80;;;6.65;;
23402;SDS011;11874;48.228;11.684;2023-12-07T05:34:52;13.15;;;7.50;;
23402;SDS011;11874;48.228;11.684;2023-12-07T05:37:21;11.88;;;7.15;;
23402;SDS011;11874;48.228;11.684;2023-12-07T05:39:49;10.05;;;6.53;;
23402;SDS011;11874;48.228;11.684;2023-12-07T05:42:17;11.50;;;7.00;;
23402;SDS011;11874;48.228;11.684;2023-12-07T05:44:46;10.38;;;6.90;;
23402;SDS011;11874;48.228;11.684;2023-12-07T05:47:14;12.77;;;7.07;;
23402;SDS011;11874;48.228;11.684;2023-12-07T05:49:43;10.95;;;6.70;;
23402;SDS011;11874;48.228;11.684;2023-12-07T05:52:11;11.82;;;7.20;;
23402;SDS011;11874;48.228;11.684;2023-12-07T05:54:40;12.35;;;7.55;;
23402;SDS011;11874;48.228;11.684;2023-12-07T05:57:09;16.27;;;7.75;;
23402;SDS011;11874;48.228;11.684;2023-12-07T05:59:38;11.63;;;6.60;;
23402;SDS011;11874;48.228;11.684;2023-12-07T06:02:06;13.35;;;7.43;;
23402;SDS011;11874;48.228;11.684;2023-12-07T06:04:34;11.60;;;7.05;;
23402;SDS011;11874;48.228;11.684;2023-12-07T06:07:03;11.82;;;6.82;;
23402;SDS011;11874;48.228;11.684;2023-12-07T06:09:31;12.73;;;6.88;;
23402;SDS011;11874;48.228;11.684;2023-12-07T06:12:02;15.65;;;7.70;;
23402;SDS011;11874;48.228;11.684;2023-12-07T06:14:30;11.30;;;7.30;;
23402;SDS011;11874;48.228;11.684;2023-12-07T06:16:59;11.85;;;6.85;;
23402;SDS011;11874;48.228;11.684;2023-12-07T06:19:27;11.15;;;6.70;;
23402;SDS011;11874;48.228;11.684;2023-12-07T06:21:55;11.10;;;6.88;;
23402;SDS011;11874;48.228;11.684;2023-12-07T06:24:25;11.20;;;6.78;;
23402;SDS011;11874;48.228;11.684;2023-12-07T06:26:53;11.38;;;6.97;;
23402;SDS011;11874;48.228;11.684;2023-12-07T06:29:22;12.25;;;7.40;;
23402;SDS011;11874;48.228;11.684;2023-12-07T06:31:55;15.50;;;7.28;;
23402;SDS011;11874;48.228;11.684;2023-12-07T06:34:23;10.75;;;7.05;;
23402;SDS011;11874;48.228;11.684;2023-12-07T06:36:51;13.90;;;7.18;;
23402;SDS011;11874;48.228;11.684;2023-12-07T06:39:19;10.55;;;6.53;;
23402;SDS011;11874;48.228;11.684;2023-12-07T06:41:47;13.43;;;6.93;;
23402;SDS011;11874;48.228;11.684;2023-12-07T06:44:15;13.23;;;7.20;;
23402;SDS011;11874;48.228;11.684;2023-12-07T06:46:45;13.98;;;7.20;;
23402;SDS011;11874;48.228;11.684;2023-12-07T06:49:13;12.75;;;6.55;;
23402;SDS011;11874;48.228;11.684;2023-12-07T06:51:41;12.40;;;7.07;;
23402;SDS011;11874;48.228;11.684;2023-12-07T06:54:09;11.35;;;6.57;;
23402;SDS011;11874;48.228;11.684;2023-12-07T06:56:37;12.93;;;6.80;;
23402;SDS011;11874;48.228;11.684;2023-12-07T06:59:06;11.63;;;7.65;;
23402;SDS011;11874;48.228;11.684;2023-12-07T07:01:35;13.38;;;7.93;;
23402;SDS011;11874;48.228;11.684;2023-12-07T07:04:05;11.23;;;7.28;;
23402;SDS011;11874;48.228;11.684;2023-12-07T07:06:35;10.32;;;6.80;;
23402;SDS011;11874;48.228;11.684;2023-12-07T07:09:03;11.98;;;6.68;;
23402;SDS011;11874;48.228;11.684;2023-12-07T07:11:31;12.40;;;7.30;;
23402;SDS011;11874;48.228;11.684;2023-12-07T07:14:00;13.43;;;7.20;;
23402;SDS011;11874;48.228;11.684;2023-12-07T07:16:31;13.00;;;7.38;;
23402;SDS011;11874;48.228;11.684;2023-12-07T07:18:59;13.75;;;7.53;;
23402;SDS011;11874;48.228;11.684;2023-12-07T07:21:29;10.90;;;6.90;;
23402;SDS011;11874;48.228;11.684;2023-12-07T07:23:57;14.95;;;7.25;;
23402;SDS011;11874;48.228;11.684;2023-12-07T07:26:25;13.25;;;7.72;;
23402;SDS011;11874;48.228;11.684;2023-12-07T07:28:54;12.25;;;6.88;;
23402;SDS011;11874;48.228;11.684;2023-12-07T07:31:22;13.57;;;7.13;;
23402;SDS011;11874;48.228;11.684;2023-12-07T07:33:50;14.05;;;7.18;;
23402;SDS011;11874;48.228;11.684;2023-12-07T07:36:26;15.63;;;7.47;;
23402;SDS011;11874;48.228;11.684;2023-12-07T07:38:56;12.45;;;7.78;;
23402;SDS011;11874;48.228;11.684;2023-12-07T07:41:24;11.35;;;7.43;;
23402;SDS011;11874;48.228;11.684;2023-12-07T07:43:52;13.00;;;7.63;;
23402;SDS011;11874;48.228;11.684;2023-12-07T07:46:21;13.95;;;7.53;;
23402;SDS011;11874;48.228;11.684;2023-12-07T07:48:49;11.82;;;7.72;;
23402;SDS011;11874;48.228;11.684;2023-12-07T07:51:18;15.43;;;7.43;;
23402;SDS011;11874;48.228;11.684;2023-12-07T07:53:48;15.05;;;8.43;;
23402;SDS011;11874;48.228;11.684;2023-12-07T07:56:15;12.73;;;7.50;;
23402;SDS011;11874;48.228;11.684;2023-12-07T07:58:43;15.25;;;7.78;;
23402;SDS011;11874;48.228;11.684;2023-12-07T08:01:12;12.07;;;7.68;;
23402;SDS011;11874;48.228;11.684;2023-12-07T08:03:42;10.93;;;6.82;;
23402;SDS011;11874;48.228;11.684;2023-12-07T08:06:10;13.80;;;8.18;;
23402;SDS011;11874;48.228;11.684;2023-12-07T08:08:38;14.75;;;8.15;;
23402;SDS011;11874;48.228;11.684;2023-12-07T08:11:08;16.02;;;8.40;;
23402;SDS011;11874;48.228;11.684;2023-12-07T08:13:37;19.40;;;8.27;;
23402;SDS011;11874;48.228;11.684;2023-12-07T08:16:07;15.45;;;8.15;;
23402;SDS011;11874;48.228;11.684;2023-12-07T08:18:36;14.02;;;8.70;;
23402;SDS011;11874;48.228;11.684;2023-12-07T08:21:04;13.73;;;7.68;;
23402;SDS011;11874;48.228;11.684;2023-12-07T08:23:34;14.95;;;8.13;;
23402;SDS011;11874;48.228;11.684;2023-12-07T08:26:03;13.43;;;8.38;;
23402;SDS011;11874;48.228;11.684;2023-12-07T08:28:32;15.27;;;8.43;;
23402;SDS011;11874;48.228;11.684;2023-12-07T08:31:00;14.25;;;8.25;;
23402;SDS011;11874;48.228;11.684;2023-12-07T08:33:29;12.27;;;7.75;;
23402;SDS011;11874;48.228;11.684;2023-12-07T08:35:57;14.30;;;7.97;;
23402;SDS011;11874;48.228;11.684;2023-12-07T08:38:26;15.23;;;9.48;;
23402;SDS011;11874;48.228;11.684;2023-12-07T08:40:54;17.52;;;9.23;;
23402;SDS011;11874;48.228;11.684;2023-12-07T08:43:23;16.27;;;9.32;;
23402;SDS011;11874;48.228;11.684;2023-12-07T08:45:53;15.70;;;8.95;;
23402;SDS011;11874;48.228;11.684;2023-12-07T08:48:27;17.83;;;9.02;;
23402;SDS011;11874;48.228;11.684;2023-12-07T08:50:55;15.25;;;8.68;;
23402;SDS011;11874;48.228;11.684;2023-12-07T08:53:23;16.00;;;8.95;;
23402;SDS011;11874;48.228;11.684;2023-12-07T08:55:52;17.98;;;8.98;;
23402;SDS011;11874;48.228;11.684;2023-12-07T08:58:21;15.10;;;8.98;;
23402;SDS011;11874;48.228;11.684;2023-12-07T09:00:49;16.45;;;8.93;;
23402;SDS011;11874;48.228;11.684;2023-12-07T09:03:20;17.58;;;9.30;;
23402;SDS011;11874;48.228;11.684;2023-12-07T09:05:52;19.00;;;9.45;;
23402;SDS011;11874;48.228;11.684;2023-12-07T09:08:20;16.05;;;9.40;;
23402;SDS011;11874;48.228;11.684;2023-12-07T09:10:48;14.43;;;9.55;;
23402;SDS011;11874;48.228;11.684;2023-12-07T09:13:17;17.02;;;9.52;;
23402;SDS011;11874;48.228;11.684;2023-12-07T09:15:45;18.80;;;9.75;;
23402;SDS011;11874;48.228;11.684;2023-12-07T09:18:13;17.65;;;10.25;;
23402;SDS011;11874;48.228;11.684;2023-12-07T09:20:43;19.73;;;10.80;;
23402;SDS011;11874;48.228;11.684;2023-12-07T09:23:13;17.70;;;9.90;;
23402;SDS011;11874;48.228;11.684;2023-12-07T09:25:42;20.10;;;11.02;;
23402;SDS011;11874;48.228;11.684;2023-12-07T09:28:12;16.30;;;9.73;;
23402;SDS011;11874;48.228;11.684;2023-12-07T09:30:40;18.42;;;9.95;;
23402;SDS011;11874;48.228;11.684;2023-12-07T09:33:10;14.27;;;8.90;;
23402;SDS011;11874;48.228;11.684;2023-12-07T09:35:39;14.30;;;8.30;;
23402;SDS011;11874;48.228;11.684;2023-12-07T09:38:09;14.05;;;8.05;;
23402;SDS011;11874;48.228;11.684;2023-12-07T09:40:37;14.85;;;8.55;;
23402;SDS011;11874;48.228;11.684;2023-12-07T09:43:05;14.23;;;8.32;;
23402;SDS011;11874;48.228;11.684;2023-12-07T09:45:34;16.58;;;8.57;;
23402;SDS011;11874;48.228;11.684;2023-12-07T09:48:02;12.10;;;8.32;;
23402;SDS011;11874;48.228;11.684;2023-12-07T09:50:34;14.85;;;8.38;;
23402;SDS011;11874;48.228;11.684;2023-12-07T09:53:03;12.77;;;7.78;;
23402;SDS011;11874;48.228;11.684;2023-12-07T09:55:35;12.65;;;8.18;;
23402;SDS011;11874;48.228;11.684;2023-12-07T09:58:04;12.95;;;7.85;;
23402;SDS011;11874;48.228;11.684;2023-12-07T10:00:35;15.55;;;7.95;;
23402;SDS011;11874;48.228;11.684;2023-12-07T10:03:04;14.38;;;8.50;;
23402;SDS011;11874;48.228;11.684;2023-12-07T10:05:46;13.27;;;7.68;;
23402;SDS011;11874;48.228;11.684;2023-12-07T10:08:28;14.60;;;8.80;;
23402;SDS011;11874;48.228;11.684;2023-12-07T10:11:05;13.82;;;8.63;;
23402;SDS011;11874;48.228;11.684;2023-12-07T10:13:35;16.20;;;9.32;;
23402;SDS011;11874;48.228;11.684;2023-12-07T10:16:09;13.77;;;8.15;;
23402;SDS011;11874;48.228;11.684;2023-12-07T10:18:38;16.55;;;8.35;;
23402;SDS011;11874;48.228;11.684;2023-12-07T10:23:38;13.60;;;8.43;;
23402;SDS011;11874;48.228;11.684;2023-12-07T10:26:11;14.05;;;7.97;;
23402;SDS011;11874;48.228;11.684;2023-12-07T10:28:42;13.25;;;8.80;;
23402;SDS011;11874;48.228;11.684;2023-12-07T10:31:11;13.80;;;8.73;;
23402;SDS011;11874;48.228;11.684;2023-12-07T10:33:39;16.33;;;9.20;;
23402;SDS011;11874;48.228;11.684;2023-12-07T10:36:09;15.15;;;8.40;;
23402;SDS011;11874;48.228;11.684;2023-12-07T10:38:37;16.45;;;8.32;;
23402;SDS011;11874;48.228;11.684;2023-12-07T10:41:09;12.63;;;7.95;;
23402;SDS011;11874;48.228;11.684;2023-12-07T10:43:42;16.90;;;8.85;;
23402;SDS011;11874;48.228;11.684;2023-12-07T10:46:11;13.32;;;8.35;;
23402;SDS011;11874;48.228;11.684;2023-12-07T10:48:42;14.85;;;8.20;;
23402;SDS011;11874;48.228;11.684;2023-12-07T10:51:16;10.65;;;6.32;;
23402;SDS011;11874;48.228;11.684;2023-12-07T10:53:51;15.55;;;9.02;;
23402;SDS011;11874;48.228;11.684;2023-12-07T10:56:23;12.65;;;8.38;;
23402;SDS011;11874;48.228;11.684;2023-12-07T10:58:57;15.80;;;8.60;;
23402;SDS011;11874;48.228;11.684;2023-12-07T11:01:26;13.00;;;7.57;;
23402;SDS011;11874;48.228;11.684;2023-12-07T11:03:55;17.67;;;8.90;;
23402;SDS011;11874;48.228;11.684;2023-12-07T11:06:24;14.25;;;8.23;;
23402;SDS011;11874;48.228;11.684;2023-12-07T11:08:55;17.67;;;9.32;;
23402;SDS011;11874;48.228;11.684;2023-12-07T11:11:28;15.98;;;8.95;;
23402;SDS011;11874;48.228;11.684;2023-12-07T11:14:03;15.20;;;8.40;;
23402;SDS011;11874;48.228;11.684;2023-12-07T11:16:34;15.65;;;8.63;;
23402;SDS011;11874;48.228;11.684;2023-12-07T11:19:03;17.30;;;8.93;;
23402;SDS011;11874;48.228;11.684;2023-12-07T11:21:37;15.88;;;9.90;;
23402;SDS011;11874;48.228;11.684;2023-12-07T11:24:05;15.10;;;9.13;;
23402;SDS011;11874;48.228;11.684;2023-12-07T11:26:34;13.68;;;7.88;;
23402;SDS011;11874;48.228;11.684;2023-12-07T11:29:04;11.77;;;7.75;;
23402;SDS011;11874;48.228;11.684;2023-12-07T11:31:36;11.85;;;7.15;;
23402;SDS011;11874;48.228;11.684;2023-12-07T11:34:05;13.93;;;7.50;;
23402;SDS011;11874;48.228;11.684;2023-12-07T11:36:34;11.88;;;8.15;;
23402;SDS011;11874;48.228;11.684;2023-12-07T11:39:16;12.05;;;7.28;;
23402;SDS011;11874;48.228;11.684;2023-12-07T11:41:54;12.18;;;7.22;;
23402;SDS011;11874;48.228;11.684;2023-12-07T11:44:34;17.25;;;7.90;;
23402;SDS011;11874;48.228;11.684;2023-12-07T11:47:02;13.02;;;7.47;;
23402;SDS011;11874;48.228;11.684;2023-12-07T11:49:31;11.93;;;7.70;;
23402;SDS011;11874;48.228;11.684;2023-12-07T11:52:12;11.23;;;5.43;;
23402;SDS011;11874;48.228;11.684;2023-12-07T11:54:44;12.13;;;6.78;;
23402;SDS011;11874;48.228;11.684;2023-12-07T11:59:47;10.90;;;7.30;;
23402;SDS011;11874;48.228;11.684;2023-12-07T12:02:15;10.05;;;7.00;;
23402;SDS011;11874;48.228;11.684;2023-12-07T12:04:43;10.93;;;6.82;;
23402;SDS011;11874;48.228;11.684;2023-12-07T12:07:12;13.35;;;7.40;;
23402;SDS011;11874;48.228;11.684;2023-12-07T12:09:40;14.40;;;7.57;;
23402;SDS011;11874;48.228;11.684;2023-12-07T12:12:08;12.88;;;7.93;;
23402;SDS011;11874;48.228;11.684;2023-12-07T12:14:36;12.80;;;7.50;;
23402;SDS011;11874;48.228;11.684;2023-12-07T12:17:06;14.32;;;7.88;;
23402;SDS011;11874;48.228;11.684;2023-12-07T12:19:34;15.00;;;7.93;;
23402;SDS011;11874;48.228;11.684;2023-12-07T12:22:04;11.45;;;7.05;;
23402;SDS011;11874;48.228;11.684;2023-12-07T12:24:34;13.30;;;8.15;;
23402;SDS011;11874;48.228;11.684;2023-12-07T12:27:03;12.73;;;8.32;;
23402;SDS011;11874;48.228;11.684;2023-12-07T12:29:32;12.20;;;7.93;;
23402;SDS011;11874;48.228;11.684;2023-12-07T12:32:01;14.07;;;8.57;;
23402;SDS011;11874;48.228;11.684;2023-12-07T12:34:33;10.90;;;7.53;;
23402;SDS011;11874;48.228;11.684;2023-12-07T12:37:02;11.02;;;7.10;;
23402;SDS011;11874;48.228;11.684;2023-12-07T12:39:33;12.65;;;7.40;;
23402;SDS011;11874;48.228;11.684;2023-12-07T12:42:02;11.55;;;6.97;;
23402;SDS011;11874;48.228;11.684;2023-12-07T12:44:31;11.00;;;6.32;;
23402;SDS011;11874;48.228;11.684;2023-12-07T12:47:04;11.25;;;6.30;;
23402;SDS011;11874;48.228;11.684;2023-12-07T12:49:37;11.38;;;5.90;;
23402;SDS011;11874;48.228;11.684;2023-12-07T12:52:09;8.07;;;5.43;;
23402;SDS011;11874;48.228;11.684;2023-12-07T12:54:39;8.75;;;5.68;;
23402;SDS011;11874;48.228;11.684;2023-12-07T12:57:10;7.80;;;5.28;;
23402;SDS011;11874;48.228;11.684;2023-12-07T12:59:38;8.23;;;5.15;;
23402;SDS011;11874;48.228;11.684;2023-12-07T13:02:06;7.60;;;4.78;;
23402;SDS011;11874;48.228;11.684;2023-12-07T13:04:37;5.28;;;4.20;;
23402;SDS011;11874;48.228;11.684;2023-12-07T13:07:08;8.20;;;5.28;;
23402;SDS011;11874;48.228;11.684;2023-12-07T13:09:36;5.43;;;4.05;;
23402;SDS011;11874;48.228;11.684;2023-12-07T13:12:05;7.03;;;4.70;;
23402;SDS011;11874;48.228;11.684;2023-12-07T13:14:33;8.38;;;6.45;;
23402;SDS011;11874;48.228;11.684;2023-12-07T13:17:04;8.60;;;6.55;;
23402;SDS011;11874;48.228;11.684;2023-12-07T13:19:34;8.98;;;6.72;;
23402;SDS011;11874;48.228;11.684;2023-12-07T13:22:04;11.80;;;7.28;;
23402;SDS011;11874;48.228;11.684;2023-12-07T13:24:32;8.57;;;6.57;;
23402;SDS011;11874;48.228;11.684;2023-12-07T13:27:01;10.05;;;6.75;;
23402;SDS011;11874;48.228;11.684;2023-12-07T13:29:30;9.70;;;6.70;;
23402;SDS011;11874;48.228;11.684;2023-12-07T13:34:33;9.27;;;5.95;;
23402;SDS011;11874;48.228;11.684;2023-12-07T13:37:01;9.02;;;6.43;;
23402;SDS011;11874;48.228;11.684;2023-12-07T13:39:31;8.68;;;5.47;;
23402;SDS011;11874;48.228;11.684;2023-12-07T13:41:59;7.60;;;5.88;;
23402;SDS011;11874;48.228;11.684;2023-12-07T13:44:31;9.35;;;5.90;;
23402;SDS011;11874;48.228;11.684;2023-12-07T13:46:59;9.90;;;6.07;;
23402;SDS011;11874;48.228;11.684;2023-12-07T13:49:28;9.18;;;6.30;;
23402;SDS011;11874;48.228;11.684;2023-12-07T13:51:59;9.07;;;6.53;;
23402;SDS011;11874;48.228;11.684;2023-12-07T13:54:34;10.23;;;6.80;;
23402;SDS011;11874;48.228;11.684;2023-12-07T13:59:34;10.13;;;7.95;;
23402;SDS011;11874;48.228;11.684;2023-12-07T14:02:04;11.05;;;7.68;;
23402;SDS011;11874;48.228;11.684;2023-12-07T14:04:33;10.00;;;7.53;;
23402;SDS011;11874;48.228;11.684;2023-12-07T14:07:09;11.07;;;7.75;;
23402;SDS011;11874;48.228;11.684;2023-12-07T14:09:41;11.93;;;7.95;;
23402;SDS011;11874;48.228;11.684;2023-12-07T14:12:23;13.63;;;8.23;;
23402;SDS011;11874;48.228;11.684;2023-12-07T14:14:51;11.45;;;8.38;;
23402;SDS011;11874;48.228;11.684;2023-12-07T14:17:22;13.10;;;9.15;;
23402;SDS011;11874;48.228;11.684;2023-12-07T14:19:53;13.75;;;9.32;;
23402;SDS011;11874;48.228;11.684;2023-12-07T14:22:40;13.63;;;9.10;;
23402;SDS011;11874;48.228;11.684;2023-12-07T14:25:11;15.45;;;9.77;;
23402;SDS011;11874;48.228;11.684;2023-12-07T14:27:38;15.50;;;9.27;;
23402;SDS011;11874;48.228;11.684;2023-12-07T14:30:07;15.50;;;10.07;;
23402;SDS011;11874;48.228;11.684;2023-12-07T14:32:36;13.55;;;9.57;;
23402;SDS011;11874;48.228;11.684;2023-12-07T14:35:07;15.75;;;9.23;;
23402;SDS011;11874;48.228;11.684;2023-12-07T14:37:36;14.30;;;7.75;;
23402;SDS011;11874;48.228;11.684;2023-12-07T14:40:04;15.35;;;9.35;;
23402;SDS011;11874;48.228;11.684;2023-12-07T14:42:35;13.48;;;8.85;;
23402;SDS011;11874;48.228;11.684;2023-12-07T14:45:04;13.77;;;9.02;;